In Rescue
 
Open Full Screen Window  High Contrast Mode
Wind Gusting 00 knots
05
March 01, 2024 4:41 PM EST
Weather Information
Wind Direction
  180 °
Wind Speed
  05 kt (6 mph)
Wind Gust
  00 kt (0 mph)
Altimeter
30.51 in
Visibility
10 SM
Temperature
07° C
45° F
Dewpoint
-08° C
18° F
Humidity
34%
Sky Condition
Clear
VFR

METAR K22N 012141Z AUTO 18005KT 10SM CLR 07/M08 A3051 RMK AO2

FAA Disclaimer: The data displayed is for advisory purposes only and is not to be used for flight planning or operations.